Time;durP1;ratioP1;P1;durP2;ratioP2;P2;SDS_P1;SDS_P2;PMS_P1;PMS_P2;Temp;Humidity;BMP_temperature;BMP_pressure;BME280_temperature;BME280_humidity;BME280_pressure;Samples;Min_cycle;Max_cycle;Signal;HPM_P1;HPM_P2
2023/01/31 00:00:15;;;;;;;9.90;4.53;;;;;;;;;;5016066;28;20531;-54
2023/01/31 00:02:41;;;;;;;6.77;4.07;;;;;;;;;;5037368;28;20579;-54
2023/01/31 00:05:07;;;;;;;4.20;3.23;;;;;;;;;;5038171;28;21786;-54
2023/01/31 00:07:33;;;;;;;4.73;3.80;;;;;;;;;;5043158;28;20549;-54
2023/01/31 00:09:59;;;;;;;4.60;3.30;;;;;;;;;;4996864;28;20438;-55
2023/01/31 00:12:25;;;;;;;5.20;3.80;;;;;;;;;;5041183;28;20577;-55
2023/01/31 00:14:51;;;;;;;7.00;4.30;;;;;;;;;;5035760;28;20520;-56
2023/01/31 00:17:17;;;;;;;7.40;4.50;;;;;;;;;;5040025;28;20518;-54
2023/01/31 00:19:43;;;;;;;4.10;2.80;;;;;;;;;;5029946;28;20901;-55
2023/01/31 00:22:09;;;;;;;7.20;4.03;;;;;;;;;;5017007;28;20449;-55
2023/01/31 00:24:35;;;;;;;4.00;3.33;;;;;;;;;;5045490;28;20422;-54
2023/01/31 00:27:01;;;;;;;5.37;3.83;;;;;;;;;;5030102;28;20481;-56
2023/01/31 00:29:27;;;;;;;11.17;4.40;;;;;;;;;;5041536;28;20446;-55
2023/01/31 00:31:53;;;;;;;8.10;4.10;;;;;;;;;;5006843;28;20430;-51
2023/01/31 00:34:19;;;;;;;5.93;3.70;;;;;;;;;;5018669;28;20483;-53
2023/01/31 00:36:44;;;;;;;6.83;4.13;;;;;;;;;;5028461;28;20500;-54
2023/01/31 00:39:11;;;;;;;3.73;3.23;;;;;;;;;;5014285;28;20835;-55
2023/01/31 00:41:37;;;;;;;4.27;3.63;;;;;;;;;;5023136;28;20465;-53
2023/01/31 00:44:03;;;;;;;7.53;4.07;;;;;;;;;;5039056;28;20431;-55
2023/01/31 00:46:29;;;;;;;4.90;3.20;;;;;;;;;;5037539;28;20841;-51
2023/01/31 00:48:56;;;;;;;4.73;3.43;;;;;;;;;;5027548;28;20560;-54
2023/01/31 00:51:22;;;;;;;6.30;3.80;;;;;;;;;;5021554;28;20536;-53
2023/01/31 00:53:49;;;;;;;4.43;3.67;;;;;;;;;;5037371;28;20436;-55
2023/01/31 00:56:16;;;;;;;5.47;3.37;;;;;;;;;;4997417;28;20462;-53
2023/01/31 00:58:42;;;;;;;5.43;3.97;;;;;;;;;;5044635;28;20446;-54
2023/01/31 01:01:09;;;;;;;5.83;3.30;;;;;;;;;;5038567;28;20449;-54
2023/01/31 01:03:35;;;;;;;8.20;4.00;;;;;;;;;;5040655;28;20448;-52
2023/01/31 01:06:01;;;;;;;13.00;3.80;;;;;;;;;;4987288;28;20478;-53
2023/01/31 01:08:28;;;;;;;6.90;4.10;;;;;;;;;;5043221;28;20449;-54
2023/01/31 01:10:53;;;;;;;5.50;3.20;;;;;;;;;;4974434;28;20489;-54
2023/01/31 01:13:19;;;;;;;10.60;2.80;;;;;;;;;;5033115;28;20493;-54
2023/01/31 01:15:46;;;;;;;4.00;3.10;;;;;;;;;;5032052;28;20516;-53
2023/01/31 01:18:11;;;;;;;5.30;3.23;;;;;;;;;;5036558;28;20438;-54
2023/01/31 01:20:37;;;;;;;6.50;2.93;;;;;;;;;;5008303;28;20466;-55
2023/01/31 01:23:04;;;;;;;5.90;3.17;;;;;;;;;;5041755;28;20434;-54
2023/01/31 01:25:30;;;;;;;14.33;3.27;;;;;;;;;;5009432;28;20533;-56
2023/01/31 01:27:56;;;;;;;8.87;3.33;;;;;;;;;;5035762;28;20462;-53
2023/01/31 01:30:22;;;;;;;5.87;3.93;;;;;;;;;;5032167;28;20423;-53
2023/01/31 01:32:48;;;;;;;8.40;3.43;;;;;;;;;;5034533;28;20445;-53
2023/01/31 01:35:14;;;;;;;5.20;3.13;;;;;;;;;;5008602;28;20960;-52
2023/01/31 01:37:39;;;;;;;4.80;3.63;;;;;;;;;;5037186;28;20447;-51
2023/01/31 01:40:06;;;;;;;5.40;3.50;;;;;;;;;;4987523;28;20478;-53
2023/01/31 01:42:35;;;;;;;3.00;2.70;;;;;;;;;;5022910;28;20481;-52
2023/01/31 01:45:01;;;;;;;8.93;3.87;;;;;;;;;;5014758;28;20435;-54
2023/01/31 01:47:43;;;;;;;4.87;4.40;;;;;;;;;;5034549;28;20477;-53
2023/01/31 01:50:15;;;;;;;7.47;3.50;;;;;;;;;;5008987;28;20430;-53
2023/01/31 01:52:45;;;;;;;7.03;3.00;;;;;;;;;;5015014;28;20453;-53
2023/01/31 01:55:35;;;;;;;7.40;4.47;;;;;;;;;;4992167;28;20847;-53
2023/01/31 01:58:02;;;;;;;4.27;3.80;;;;;;;;;;5023535;28;20566;-53
2023/01/31 02:00:29;;;;;;;8.23;3.70;;;;;;;;;;5009948;28;20529;-53
2023/01/31 02:02:56;;;;;;;6.90;2.90;;;;;;;;;;5016895;28;20453;-53
2023/01/31 02:05:30;;;;;;;10.37;4.20;;;;;;;;;;5005988;28;20565;-55
2023/01/31 02:07:56;;;;;;;6.80;4.73;;;;;;;;;;5036973;28;20430;-53
2023/01/31 02:10:42;;;;;;;10.43;3.23;;;;;;;;;;5009739;28;20446;-54
2023/01/31 02:13:08;;;;;;;5.30;3.50;;;;;;;;;;4997544;28;20430;-55
2023/01/31 02:15:34;;;;;;;4.50;3.07;;;;;;;;;;4972565;28;20458;-54
2023/01/31 02:18:00;;;;;;;7.27;3.37;;;;;;;;;;5032789;28;21018;-55
2023/01/31 02:20:37;;;;;;;5.73;3.80;;;;;;;;;;5008859;28;20458;-54
2023/01/31 02:23:16;;;;;;;9.57;4.03;;;;;;;;;;5024872;28;20491;-55
2023/01/31 02:25:56;;;;;;;5.30;2.90;;;;;;;;;;5010990;28;20904;-54
2023/01/31 02:28:22;;;;;;;8.00;3.50;;;;;;;;;;5021903;28;20426;-54
2023/01/31 02:30:54;;;;;;;7.30;4.43;;;;;;;;;;5032209;28;20765;-52
2023/01/31 02:33:25;;;;;;;4.57;3.70;;;;;;;;;;5036458;28;20726;-55
2023/01/31 02:35:51;;;;;;;9.10;3.63;;;;;;;;;;5012243;28;20480;-55
2023/01/31 02:38:35;;;;;;;4.57;4.10;;;;;;;;;;5040634;28;20442;-54
2023/01/31 02:41:20;;;;;;;5.00;3.30;;;;;;;;;;5013903;28;20435;-54
2023/01/31 02:47:07;;;;;;;5.60;4.40;;;;;;;;;;5035701;28;20492;-54
2023/01/31 02:49:38;;;;;;;4.60;3.10;;;;;;;;;;4974379;28;21379;-56
2023/01/31 02:52:16;;;;;;;7.70;4.10;;;;;;;;;;5012214;28;20443;-54
2023/01/31 02:57:31;;;;;;;5.60;3.40;;;;;;;;;;5004469;28;22223;-55
2023/01/31 02:59:56;;;;;;;6.90;3.80;;;;;;;;;;5042745;28;20545;-55
2023/01/31 03:02:22;;;;;;;6.30;3.63;;;;;;;;;;5009134;28;20529;-54
2023/01/31 03:04:48;;;;;;;4.93;3.93;;;;;;;;;;5009028;28;20469;-55
2023/01/31 03:07:15;;;;;;;8.57;4.13;;;;;;;;;;5017188;28;20480;-56
2023/01/31 03:09:41;;;;;;;7.17;3.30;;;;;;;;;;5029504;28;21114;-55
2023/01/31 03:12:40;;;;;;;12.63;4.53;;;;;;;;;;5018522;28;20441;-55
2023/01/31 03:15:05;;;;;;;5.83;3.80;;;;;;;;;;4989529;28;20434;-55
2023/01/31 03:17:36;;;;;;;4.80;3.80;;;;;;;;;;5037186;28;20488;-55
2023/01/31 03:20:15;;;;;;;11.83;4.17;;;;;;;;;;5025077;28;20509;-55
2023/01/31 03:22:51;;;;;;;13.40;4.20;;;;;;;;;;5008855;28;20464;-54
2023/01/31 03:25:18;;;;;;;11.20;4.70;;;;;;;;;;5024409;28;21167;-54
2023/01/31 03:27:45;;;;;;;5.53;4.00;;;;;;;;;;5011468;28;20451;-53
2023/01/31 03:30:20;;;;;;;6.37;3.97;;;;;;;;;;5021434;28;20433;-53
2023/01/31 03:32:52;;;;;;;17.37;6.67;;;;;;;;;;4993976;28;20813;-52
2023/01/31 03:35:20;;;;;;;7.40;4.10;;;;;;;;;;5021022;28;20434;-54
2023/01/31 03:37:51;;;;;;;7.00;3.60;;;;;;;;;;5013870;28;20442;-54
2023/01/31 03:40:17;;;;;;;8.47;3.83;;;;;;;;;;5029986;28;20524;-54
2023/01/31 03:43:18;;;;;;;8.00;3.60;;;;;;;;;;5013483;28;20859;-55
2023/01/31 03:45:52;;;;;;;3.17;2.87;;;;;;;;;;4922086;29;21867;-54
2023/01/31 03:48:21;;;;;;;8.23;4.13;;;;;;;;;;5015864;28;20517;-55
2023/01/31 03:50:48;;;;;;;4.43;3.30;;;;;;;;;;5036521;28;20443;-53
2023/01/31 03:53:24;;;;;;;8.70;3.60;;;;;;;;;;4991837;28;20449;-55
2023/01/31 03:56:00;;;;;;;4.57;3.60;;;;;;;;;;5039674;28;20429;-54
2023/01/31 03:58:28;;;;;;;4.70;3.47;;;;;;;;;;5018752;28;20509;-55
2023/01/31 04:00:54;;;;;;;9.60;4.13;;;;;;;;;;5038321;28;20557;-55
2023/01/31 04:03:39;;;;;;;7.63;4.13;;;;;;;;;;5000773;28;20537;-55
2023/01/31 04:06:05;;;;;;;8.37;3.60;;;;;;;;;;5011655;28;20671;-53
2023/01/31 04:08:31;;;;;;;6.37;4.10;;;;;;;;;;5014346;28;20817;-55
2023/01/31 04:10:58;;;;;;;5.60;3.30;;;;;;;;;;5008675;28;20535;-55
2023/01/31 04:13:23;;;;;;;5.93;4.10;;;;;;;;;;5036885;28;20431;-56
2023/01/31 04:15:49;;;;;;;7.70;4.90;;;;;;;;;;5020905;28;20466;-55
2023/01/31 04:18:15;;;;;;;8.90;4.90;;;;;;;;;;5028880;28;20442;-54
2023/01/31 04:20:41;;;;;;;11.43;4.90;;;;;;;;;;5038902;28;20517;-54
2023/01/31 04:23:07;;;;;;;6.57;3.90;;;;;;;;;;5041960;28;20730;-55
2023/01/31 04:25:48;;;;;;;6.53;4.00;;;;;;;;;;5034565;28;20562;-56
2023/01/31 04:28:18;;;;;;;8.57;3.10;;;;;;;;;;4994552;28;20459;-53
2023/01/31 04:30:44;;;;;;;9.00;4.03;;;;;;;;;;5039016;28;20524;-54
2023/01/31 04:33:10;;;;;;;7.50;3.73;;;;;;;;;;5009916;28;20438;-53
2023/01/31 04:35:39;;;;;;;6.67;3.30;;;;;;;;;;5034314;28;20453;-54
2023/01/31 04:38:04;;;;;;;4.50;3.57;;;;;;;;;;5028068;28;20446;-51
2023/01/31 04:40:30;;;;;;;8.70;4.60;;;;;;;;;;5037815;28;20496;-54
2023/01/31 04:42:56;;;;;;;6.93;4.77;;;;;;;;;;5012342;28;20183;-53
2023/01/31 04:45:22;;;;;;;18.20;4.97;;;;;;;;;;5016512;28;24623;-55
2023/01/31 04:47:48;;;;;;;6.30;3.60;;;;;;;;;;5003820;28;20480;-54
2023/01/31 04:50:14;;;;;;;6.00;4.13;;;;;;;;;;5046289;28;20179;-52
2023/01/31 04:52:40;;;;;;;5.50;4.03;;;;;;;;;;5034474;28;20455;-54
2023/01/31 04:55:06;;;;;;;7.23;3.50;;;;;;;;;;5040482;28;20434;-55
2023/01/31 04:57:32;;;;;;;6.10;3.87;;;;;;;;;;4989171;28;20576;-53
2023/01/31 04:59:58;;;;;;;7.50;4.43;;;;;;;;;;5034931;28;21286;-55
2023/01/31 05:02:24;;;;;;;5.50;3.10;;;;;;;;;;5016962;28;20529;-53
2023/01/31 05:04:50;;;;;;;7.97;3.80;;;;;;;;;;5040262;28;20438;-54
2023/01/31 05:07:16;;;;;;;7.70;3.63;;;;;;;;;;5020563;28;20494;-53
2023/01/31 05:09:43;;;;;;;4.03;3.63;;;;;;;;;;5041109;28;20430;-54
2023/01/31 05:12:09;;;;;;;12.83;4.43;;;;;;;;;;5013198;28;20526;-54
2023/01/31 05:14:35;;;;;;;12.83;5.00;;;;;;;;;;5032861;28;21443;-52
2023/01/31 05:17:01;;;;;;;6.10;3.20;;;;;;;;;;5030137;28;21000;-56
2023/01/31 05:19:27;;;;;;;9.03;3.80;;;;;;;;;;5033614;28;20453;-54
2023/01/31 05:21:59;;;;;;;7.87;5.00;;;;;;;;;;5015196;28;21143;-54
2023/01/31 05:24:31;;;;;;;8.27;4.60;;;;;;;;;;5036679;28;20908;-53
2023/01/31 05:26:58;;;;;;;6.83;3.47;;;;;;;;;;5032255;28;20466;-54
2023/01/31 05:29:27;;;;;;;13.37;4.33;;;;;;;;;;5034349;28;20437;-52
2023/01/31 05:31:58;;;;;;;3.73;3.33;;;;;;;;;;5017772;28;20476;-55
2023/01/31 05:34:25;;;;;;;3.87;3.43;;;;;;;;;;5022973;28;21048;-54
2023/01/31 05:36:52;;;;;;;11.90;3.87;;;;;;;;;;5030762;28;20423;-54
2023/01/31 05:39:18;;;;;;;13.90;5.70;;;;;;;;;;5007355;28;20446;-54
2023/01/31 05:41:44;;;;;;;11.73;4.27;;;;;;;;;;5032576;28;20441;-54
2023/01/31 05:44:10;;;;;;;11.57;4.97;;;;;;;;;;5006452;28;20430;-54
2023/01/31 05:46:36;;;;;;;9.63;4.30;;;;;;;;;;5013974;28;21005;-56
2023/01/31 05:49:02;;;;;;;9.83;4.60;;;;;;;;;;5013879;28;20517;-55
2023/01/31 05:51:28;;;;;;;8.47;4.70;;;;;;;;;;5037961;28;20551;-55
2023/01/31 05:53:54;;;;;;;12.77;4.50;;;;;;;;;;4991781;28;20499;-55
2023/01/31 05:56:21;;;;;;;12.67;4.03;;;;;;;;;;5042809;28;20449;-55
2023/01/31 05:58:49;;;;;;;8.50;4.70;;;;;;;;;;5031494;28;20659;-55
2023/01/31 06:01:16;;;;;;;8.17;4.37;;;;;;;;;;5034407;28;20450;-54
2023/01/31 06:03:42;;;;;;;7.30;4.07;;;;;;;;;;4994589;28;20435;-55
2023/01/31 06:06:08;;;;;;;9.90;4.30;;;;;;;;;;5025934;28;20481;-55
2023/01/31 06:08:34;;;;;;;5.20;3.50;;;;;;;;;;5030084;28;20445;-54
2023/01/31 06:11:03;;;;;;;7.67;4.93;;;;;;;;;;5034767;28;20441;-53
2023/01/31 06:13:29;;;;;;;7.80;3.73;;;;;;;;;;5010092;28;21905;-54
2023/01/31 06:15:55;;;;;;;7.63;4.50;;;;;;;;;;5032482;28;20518;-56
2023/01/31 06:18:21;;;;;;;7.60;4.10;;;;;;;;;;5033438;28;20442;-55
2023/01/31 06:20:47;;;;;;;9.90;4.90;;;;;;;;;;5020528;28;20507;-54
2023/01/31 06:23:13;;;;;;;8.27;4.13;;;;;;;;;;5007610;28;20433;-53
2023/01/31 06:25:39;;;;;;;5.20;4.00;;;;;;;;;;5033587;28;20489;-54
2023/01/31 06:28:05;;;;;;;11.37;5.27;;;;;;;;;;5019684;28;20454;-54
2023/01/31 06:30:31;;;;;;;7.53;4.30;;;;;;;;;;5043702;28;20460;-54
2023/01/31 06:33:00;;;;;;;14.43;5.63;;;;;;;;;;4976605;28;20919;-53
2023/01/31 06:35:26;;;;;;;8.00;4.10;;;;;;;;;;5038793;28;20457;-54
2023/01/31 06:37:52;;;;;;;8.37;4.60;;;;;;;;;;5040218;28;20449;-54
2023/01/31 06:40:18;;;;;;;10.47;5.67;;;;;;;;;;5049673;28;20426;-53
2023/01/31 06:42:44;;;;;;;8.00;4.77;;;;;;;;;;5023004;28;20477;-54
2023/01/31 06:45:10;;;;;;;8.97;2.90;;;;;;;;;;5035184;28;20434;-54
2023/01/31 06:47:36;;;;;;;6.57;3.73;;;;;;;;;;5043448;28;20635;-58
2023/01/31 06:50:02;;;;;;;7.83;4.23;;;;;;;;;;5043187;28;20501;-54
2023/01/31 06:52:28;;;;;;;6.73;4.70;;;;;;;;;;5032241;28;21088;-54
2023/01/31 06:54:54;;;;;;;9.30;5.00;;;;;;;;;;5031154;28;20453;-52
2023/01/31 06:57:20;;;;;;;11.80;7.13;;;;;;;;;;5043305;28;20434;-54
2023/01/31 06:59:46;;;;;;;9.93;5.87;;;;;;;;;;5011275;28;20430;-54
2023/01/31 07:02:12;;;;;;;8.37;4.27;;;;;;;;;;5041172;28;20782;-51
2023/01/31 07:04:38;;;;;;;7.07;5.23;;;;;;;;;;5016768;28;20949;-53
2023/01/31 07:07:04;;;;;;;4.80;4.33;;;;;;;;;;5041696;28;20555;-53
2023/01/31 07:09:30;;;;;;;7.27;4.20;;;;;;;;;;4999813;28;21390;-53
2023/01/31 07:11:56;;;;;;;12.10;4.77;;;;;;;;;;5041372;28;20441;-53
2023/01/31 07:14:22;;;;;;;11.70;7.40;;;;;;;;;;5043153;28;21245;-53
2023/01/31 07:16:48;;;;;;;10.63;5.00;;;;;;;;;;5044394;28;20495;-53
2023/01/31 07:19:14;;;;;;;12.87;6.13;;;;;;;;;;5020655;28;20453;-53
2023/01/31 07:21:41;;;;;;;11.20;4.67;;;;;;;;;;5046891;28;20176;-53
2023/01/31 07:24:07;;;;;;;9.23;5.40;;;;;;;;;;5011638;28;20431;-53
2023/01/31 07:26:33;;;;;;;6.43;4.77;;;;;;;;;;5046123;28;21056;-53
2023/01/31 07:28:59;;;;;;;18.43;5.40;;;;;;;;;;5023791;28;20454;-53
2023/01/31 07:31:25;;;;;;;4.33;3.90;;;;;;;;;;5050492;28;21039;-53
2023/01/31 07:33:51;;;;;;;5.57;4.13;;;;;;;;;;5018969;28;20434;-53
2023/01/31 07:36:21;;;;;;;4.87;3.70;;;;;;;;;;5048746;28;20821;-52
2023/01/31 07:38:47;;;;;;;4.97;4.30;;;;;;;;;;5042239;28;20434;-53
2023/01/31 07:41:13;;;;;;;8.40;5.00;;;;;;;;;;5046675;28;21648;-54
2023/01/31 07:43:39;;;;;;;5.40;3.80;;;;;;;;;;5005981;28;20442;-54
2023/01/31 07:46:08;;;;;;;16.47;6.00;;;;;;;;;;5049130;28;20915;-53
2023/01/31 07:48:34;;;;;;;8.03;4.50;;;;;;;;;;5020484;28;20442;-54
2023/01/31 07:51:00;;;;;;;7.00;4.10;;;;;;;;;;5050041;28;20449;-54
2023/01/31 07:53:29;;;;;;;6.13;3.70;;;;;;;;;;5021826;28;20505;-54
2023/01/31 07:55:56;;;;;;;5.67;3.60;;;;;;;;;;5034621;28;20442;-52
2023/01/31 07:58:22;;;;;;;11.30;4.37;;;;;;;;;;5020048;28;20852;-53
2023/01/31 08:03:33;;;;;;;7.03;3.70;;;;;;;;;;5042660;28;20461;-53
2023/01/31 08:06:02;;;;;;;11.63;4.07;;;;;;;;;;5022087;28;20466;-54
2023/01/31 08:08:28;;;;;;;10.77;4.90;;;;;;;;;;4999423;28;20525;-53
2023/01/31 08:10:54;;;;;;;10.43;4.10;;;;;;;;;;5042319;28;20524;-52
2023/01/31 08:13:21;;;;;;;5.50;4.03;;;;;;;;;;5000037;28;20434;-53
2023/01/31 08:15:47;;;;;;;4.57;3.07;;;;;;;;;;5040972;28;20521;-53
2023/01/31 08:18:13;;;;;;;13.13;3.67;;;;;;;;;;4995590;28;20438;-53
2023/01/31 08:20:40;;;;;;;15.23;4.37;;;;;;;;;;5046398;28;20457;-53
2023/01/31 08:23:06;;;;;;;5.10;3.50;;;;;;;;;;5014592;28;20451;-53
2023/01/31 08:25:32;;;;;;;9.47;4.37;;;;;;;;;;5041802;28;20516;-57
2023/01/31 08:27:58;;;;;;;3.10;2.53;;;;;;;;;;5037437;28;20461;-54
2023/01/31 08:30:24;;;;;;;5.90;3.87;;;;;;;;;;5022300;28;20638;-54
2023/01/31 08:32:50;;;;;;;5.97;2.97;;;;;;;;;;5015847;28;20450;-54
2023/01/31 08:35:17;;;;;;;10.30;2.93;;;;;;;;;;5044408;28;20457;-54
2023/01/31 08:37:43;;;;;;;12.13;3.17;;;;;;;;;;5032351;28;20439;-54
2023/01/31 08:40:09;;;;;;;4.60;3.10;;;;;;;;;;5020895;28;20446;-54
2023/01/31 08:42:35;;;;;;;5.57;3.77;;;;;;;;;;5034297;28;20435;-54
2023/01/31 08:45:01;;;;;;;9.10;5.13;;;;;;;;;;5036241;28;20449;-54
2023/01/31 08:47:29;;;;;;;7.63;3.80;;;;;;;;;;5024304;28;21940;-54
2023/01/31 08:49:54;;;;;;;10.83;3.70;;;;;;;;;;5015861;28;20460;-54
2023/01/31 08:52:20;;;;;;;8.10;4.40;;;;;;;;;;5036574;28;20446;-53
2023/01/31 08:54:46;;;;;;;4.13;3.53;;;;;;;;;;5027350;28;20565;-55
2023/01/31 08:57:12;;;;;;;6.03;4.97;;;;;;;;;;5035439;28;20565;-56
2023/01/31 08:59:38;;;;;;;7.83;4.00;;;;;;;;;;5016220;28;20473;-54
2023/01/31 09:02:04;;;;;;;7.60;3.60;;;;;;;;;;5029765;28;20445;-54
2023/01/31 09:04:30;;;;;;;10.87;3.23;;;;;;;;;;4997502;28;20438;-53
2023/01/31 09:06:56;;;;;;;6.13;5.17;;;;;;;;;;5021526;28;20492;-54
2023/01/31 09:09:24;;;;;;;5.50;4.17;;;;;;;;;;5022562;28;20576;-54
2023/01/31 09:11:50;;;;;;;4.57;4.00;;;;;;;;;;5040278;28;20903;-52
2023/01/31 09:14:16;;;;;;;4.73;3.77;;;;;;;;;;5043131;28;20419;-54
2023/01/31 09:16:45;;;;;;;5.03;3.77;;;;;;;;;;5042690;28;20444;-53
2023/01/31 09:19:11;;;;;;;4.50;3.87;;;;;;;;;;4996935;28;20557;-55
2023/01/31 09:21:37;;;;;;;7.73;3.50;;;;;;;;;;5044585;28;20499;-54
2023/01/31 09:24:03;;;;;;;6.63;4.70;;;;;;;;;;5017905;28;20921;-54
2023/01/31 09:26:29;;;;;;;8.37;4.80;;;;;;;;;;5044852;28;20477;-52
2023/01/31 09:28:56;;;;;;;5.00;3.87;;;;;;;;;;5035318;28;20430;-53
2023/01/31 09:31:22;;;;;;;7.73;5.03;;;;;;;;;;5032682;28;20443;-54
2023/01/31 09:33:48;;;;;;;12.00;4.50;;;;;;;;;;5016527;28;20840;-53
2023/01/31 09:36:18;;;;;;;8.90;4.37;;;;;;;;;;5041310;28;20952;-52
2023/01/31 09:38:44;;;;;;;5.63;4.10;;;;;;;;;;5016423;28;20442;-54
2023/01/31 09:41:15;;;;;;;6.70;4.77;;;;;;;;;;5027250;28;20433;-54
2023/01/31 09:43:41;;;;;;;9.43;4.80;;;;;;;;;;4995603;28;20450;-55
2023/01/31 09:46:09;;;;;;;5.60;3.70;;;;;;;;;;5038031;28;20470;-55
2023/01/31 09:48:40;;;;;;;9.37;4.67;;;;;;;;;;5006819;28;20422;-54
2023/01/31 09:51:06;;;;;;;6.87;4.23;;;;;;;;;;5003840;28;20809;-55
2023/01/31 09:53:32;;;;;;;6.27;3.20;;;;;;;;;;5045418;28;20429;-52
2023/01/31 09:56:01;;;;;;;7.33;3.57;;;;;;;;;;5036163;28;20426;-54
2023/01/31 09:58:40;;;;;;;8.10;2.90;;;;;;;;;;5037263;28;20856;-54
2023/01/31 10:01:22;;;;;;;8.50;3.77;;;;;;;;;;5004969;28;20431;-53
2023/01/31 10:03:48;;;;;;;6.07;3.63;;;;;;;;;;5006968;28;20444;-54
2023/01/31 10:06:14;;;;;;;3.70;3.00;;;;;;;;;;5017122;28;20474;-53
2023/01/31 10:08:46;;;;;;;6.80;2.90;;;;;;;;;;5035894;28;20443;-54
2023/01/31 10:11:24;;;;;;;4.17;3.77;;;;;;;;;;5020590;28;20488;-55
2023/01/31 10:13:53;;;;;;;4.03;2.93;;;;;;;;;;5024994;28;20516;-55
2023/01/31 10:16:19;;;;;;;8.97;3.97;;;;;;;;;;4996557;28;20442;-55
2023/01/31 10:18:49;;;;;;;7.37;2.83;;;;;;;;;;5041332;28;20470;-57
2023/01/31 10:21:16;;;;;;;11.03;3.47;;;;;;;;;;5000095;28;20438;-54
2023/01/31 10:24:06;;;;;;;8.30;4.03;;;;;;;;;;5023691;28;20438;-54
2023/01/31 10:26:33;;;;;;;9.23;3.10;;;;;;;;;;5026334;28;20481;-55
2023/01/31 10:29:18;;;;;;;3.87;1.97;;;;;;;;;;5019037;28;20433;-54
2023/01/31 10:31:44;;;;;;;8.93;3.00;;;;;;;;;;5020157;28;20589;-53
2023/01/31 10:34:12;;;;;;;7.83;3.20;;;;;;;;;;5007696;28;20446;-53
2023/01/31 10:36:46;;;;;;;5.40;2.90;;;;;;;;;;4995578;28;20469;-56
2023/01/31 10:39:18;;;;;;;4.87;2.77;;;;;;;;;;5042855;28;20473;-54
2023/01/31 10:41:47;;;;;;;5.60;2.60;;;;;;;;;;5013449;28;20438;-53
2023/01/31 10:44:35;;;;;;;4.10;2.77;;;;;;;;;;5039928;28;20426;-55
2023/01/31 10:47:01;;;;;;;6.33;2.57;;;;;;;;;;5035010;28;20509;-54
2023/01/31 10:49:27;;;;;;;4.13;2.80;;;;;;;;;;5046094;28;20828;-56
2023/01/31 10:51:56;;;;;;;6.47;2.13;;;;;;;;;;4999149;28;20808;-55
2023/01/31 10:54:22;;;;;;;5.50;2.63;;;;;;;;;;5043658;28;20748;-54
2023/01/31 10:56:48;;;;;;;7.93;3.30;;;;;;;;;;5042486;28;20460;-53
2023/01/31 10:59:19;;;;;;;6.23;2.20;;;;;;;;;;5046787;28;20421;-56
2023/01/31 11:01:45;;;;;;;10.93;3.10;;;;;;;;;;5013535;28;20462;-54
2023/01/31 11:04:25;;;;;;;3.37;2.47;;;;;;;;;;5048531;28;20493;-56
2023/01/31 11:06:51;;;;;;;4.90;2.00;;;;;;;;;;5003535;28;20572;-56
2023/01/31 11:09:17;;;;;;;3.77;2.30;;;;;;;;;;5048177;28;20472;-54
2023/01/31 11:11:53;;;;;;;4.57;3.17;;;;;;;;;;5013895;28;20541;-55
2023/01/31 11:14:19;;;;;;;5.83;2.60;;;;;;;;;;5048713;28;20430;-60
2023/01/31 11:16:45;;;;;;;7.57;3.30;;;;;;;;;;4984898;28;20596;-55
2023/01/31 11:19:19;;;;;;;11.67;3.50;;;;;;;;;;5042382;28;20469;-55
2023/01/31 11:21:48;;;;;;;7.33;2.47;;;;;;;;;;4984450;28;20990;-55
2023/01/31 11:24:18;;;;;;;9.90;2.70;;;;;;;;;;5043671;28;20433;-55
2023/01/31 11:26:48;;;;;;;3.93;2.63;;;;;;;;;;5020207;28;20470;-53
2023/01/31 11:29:18;;;;;;;5.77;2.80;;;;;;;;;;5026499;28;20430;-55
2023/01/31 11:31:46;;;;;;;4.93;2.30;;;;;;;;;;5006441;28;20418;-55
2023/01/31 11:34:19;;;;;;;7.60;3.00;;;;;;;;;;5048973;28;20792;-55
2023/01/31 11:36:45;;;;;;;4.40;2.83;;;;;;;;;;5025299;28;20471;-55
2023/01/31 11:39:21;;;;;;;3.53;2.30;;;;;;;;;;5047744;28;20556;-56
2023/01/31 11:41:47;;;;;;;5.60;2.70;;;;;;;;;;5010320;28;20472;-55
2023/01/31 11:44:14;;;;;;;3.53;2.70;;;;;;;;;;5035624;28;20513;-55
2023/01/31 11:46:42;;;;;;;9.13;3.00;;;;;;;;;;5007253;28;20572;-54
2023/01/31 11:49:12;;;;;;;4.57;3.03;;;;;;;;;;5027733;28;20438;-55
2023/01/31 11:51:39;;;;;;;5.20;2.70;;;;;;;;;;5024058;28;20438;-55
2023/01/31 11:54:05;;;;;;;5.53;2.47;;;;;;;;;;5032804;28;20856;-55
2023/01/31 11:56:31;;;;;;;5.33;1.90;;;;;;;;;;5009164;28;20447;-55
2023/01/31 11:58:58;;;;;;;4.27;2.20;;;;;;;;;;5034484;28;20437;-56
2023/01/31 12:01:24;;;;;;;8.20;2.50;;;;;;;;;;5026478;28;20515;-55
2023/01/31 12:03:57;;;;;;;13.00;2.10;;;;;;;;;;5031457;28;20438;-56
2023/01/31 12:06:29;;;;;;;5.23;2.43;;;;;;;;;;5043113;28;20554;-55
2023/01/31 12:08:55;;;;;;;5.80;1.90;;;;;;;;;;5036588;28;20414;-57
2023/01/31 12:11:29;;;;;;;4.93;2.70;;;;;;;;;;5023509;28;20469;-56
2023/01/31 12:14:02;;;;;;;6.00;1.90;;;;;;;;;;5045386;28;20441;-56
2023/01/31 12:16:29;;;;;;;3.70;1.70;;;;;;;;;;5023380;28;21258;-55
2023/01/31 12:18:57;;;;;;;3.87;1.63;;;;;;;;;;5044993;28;20435;-54
2023/01/31 12:21:26;;;;;;;5.40;2.20;;;;;;;;;;5027796;28;20493;-56
2023/01/31 12:24:19;;;;;;;4.67;2.17;;;;;;;;;;5046419;28;20512;-56
2023/01/31 12:26:47;;;;;;;2.50;1.70;;;;;;;;;;4963854;28;20487;-54
2023/01/31 12:29:24;;;;;;;2.23;2.03;;;;;;;;;;5047832;28;20481;-53
2023/01/31 12:31:50;;;;;;;6.77;2.50;;;;;;;;;;5010076;28;20438;-55
2023/01/31 12:34:29;;;;;;;6.30;1.77;;;;;;;;;;5045074;28;20452;-54
2023/01/31 12:36:55;;;;;;;3.10;1.70;;;;;;;;;;5023214;28;20437;-55
2023/01/31 12:39:34;;;;;;;7.63;2.57;;;;;;;;;;5042906;28;20434;-55
2023/01/31 12:42:14;;;;;;;4.97;1.90;;;;;;;;;;4996880;28;20241;-56
2023/01/31 12:44:45;;;;;;;3.00;2.17;;;;;;;;;;4998919;28;23088;-55
2023/01/31 12:47:18;;;;;;;3.73;2.37;;;;;;;;;;5037319;28;20512;-55
2023/01/31 12:49:56;;;;;;;4.37;2.23;;;;;;;;;;5019367;28;20940;-55
2023/01/31 12:52:41;;;;;;;5.53;2.07;;;;;;;;;;4978914;28;20541;-54
2023/01/31 12:55:10;;;;;;;4.57;2.20;;;;;;;;;;5038398;28;20850;-54
2023/01/31 12:57:46;;;;;;;5.30;2.17;;;;;;;;;;5024188;28;20535;-55
2023/01/31 13:00:17;;;;;;;5.43;1.73;;;;;;;;;;5029675;28;20726;-55
2023/01/31 13:02:57;;;;;;;7.10;2.10;;;;;;;;;;5021929;28;20447;-54
2023/01/31 13:05:40;;;;;;;5.07;2.17;;;;;;;;;;5020492;28;20438;-55
2023/01/31 13:08:16;;;;;;;7.40;2.20;;;;;;;;;;5038346;28;20441;-54
2023/01/31 13:11:01;;;;;;;1.97;1.77;;;;;;;;;;5036761;28;20430;-56
2023/01/31 13:13:28;;;;;;;4.47;2.27;;;;;;;;;;5016381;28;21326;-54
2023/01/31 13:16:02;;;;;;;3.23;1.97;;;;;;;;;;5011752;28;20487;-54
2023/01/31 13:18:28;;;;;;;5.60;3.13;;;;;;;;;;5011828;28;20976;-55
2023/01/31 13:20:58;;;;;;;2.97;2.47;;;;;;;;;;5021247;28;20435;-54
2023/01/31 13:23:45;;;;;;;9.13;2.60;;;;;;;;;;5033259;28;21408;-53
2023/01/31 13:26:11;;;;;;;6.70;2.80;;;;;;;;;;5010329;28;20509;-54
2023/01/31 13:28:40;;;;;;;3.40;2.80;;;;;;;;;;5014783;28;20443;-54
2023/01/31 13:31:11;;;;;;;5.90;2.83;;;;;;;;;;4996889;28;20496;-55
2023/01/31 13:33:42;;;;;;;6.90;2.70;;;;;;;;;;5021983;28;20477;-55
2023/01/31 13:36:08;;;;;;;5.13;2.50;;;;;;;;;;4997580;28;20446;-55
2023/01/31 13:38:41;;;;;;;4.77;2.90;;;;;;;;;;5033835;28;20460;-57
2023/01/31 13:41:08;;;;;;;4.27;2.50;;;;;;;;;;5039954;28;20773;-55
2023/01/31 13:43:34;;;;;;;3.33;2.10;;;;;;;;;;5043081;28;20528;-54
2023/01/31 13:46:01;;;;;;;5.07;3.67;;;;;;;;;;5012874;28;20466;-54
2023/01/31 13:48:27;;;;;;;6.30;2.83;;;;;;;;;;5019756;28;21063;-54
2023/01/31 13:50:55;;;;;;;7.13;4.40;;;;;;;;;;5040420;28;20426;-55
2023/01/31 13:53:22;;;;;;;3.47;2.67;;;;;;;;;;4983685;28;20503;-55
2023/01/31 13:55:48;;;;;;;3.40;2.57;;;;;;;;;;5038388;28;20441;-55
2023/01/31 13:58:32;;;;;;;3.30;2.33;;;;;;;;;;4994636;28;20825;-55
2023/01/31 14:01:01;;;;;;;3.77;3.33;;;;;;;;;;5018072;28;20501;-54
2023/01/31 14:03:27;;;;;;;3.20;2.00;;;;;;;;;;4993565;28;20442;-54
2023/01/31 14:05:53;;;;;;;4.90;2.90;;;;;;;;;;5016386;28;20723;-55
2023/01/31 14:08:28;;;;;;;3.77;2.00;;;;;;;;;;5010281;28;20467;-55
2023/01/31 14:10:54;;;;;;;3.60;2.27;;;;;;;;;;5042513;28;20451;-54
2023/01/31 14:13:36;;;;;;;4.67;3.17;;;;;;;;;;5015754;28;20446;-54
2023/01/31 14:16:02;;;;;;;3.20;2.17;;;;;;;;;;5043146;28;20462;-54
2023/01/31 14:18:41;;;;;;;3.97;3.27;;;;;;;;;;5014665;28;21245;-52
2023/01/31 14:21:26;;;;;;;4.67;2.57;;;;;;;;;;5022804;28;20580;-54
2023/01/31 14:23:52;;;;;;;4.87;3.43;;;;;;;;;;5023290;28;20434;-53
2023/01/31 14:26:41;;;;;;;2.33;2.03;;;;;;;;;;5035220;28;21129;-54
2023/01/31 14:29:10;;;;;;;5.40;2.63;;;;;;;;;;5008809;28;20442;-55
2023/01/31 14:31:36;;;;;;;3.80;3.13;;;;;;;;;;5009677;28;20458;-54
2023/01/31 14:34:02;;;;;;;5.60;3.30;;;;;;;;;;5014256;28;20446;-54
2023/01/31 14:36:47;;;;;;;8.97;2.60;;;;;;;;;;5046873;28;20950;-54
2023/01/31 14:39:30;;;;;;;3.00;2.60;;;;;;;;;;5018012;28;21033;-54
2023/01/31 14:41:56;;;;;;;4.90;3.03;;;;;;;;;;5009524;28;20440;-55
2023/01/31 14:44:34;;;;;;;5.00;2.80;;;;;;;;;;5025030;28;22330;-55
2023/01/31 14:47:00;;;;;;;6.30;2.40;;;;;;;;;;5027283;28;21258;-53
2023/01/31 14:49:52;;;;;;;4.60;2.77;;;;;;;;;;5034964;28;20429;-54
2023/01/31 14:52:18;;;;;;;6.00;2.70;;;;;;;;;;5013334;28;20438;-52
2023/01/31 14:54:48;;;;;;;6.20;2.83;;;;;;;;;;5043197;28;20427;-53
2023/01/31 14:57:18;;;;;;;9.63;2.80;;;;;;;;;;5004302;28;20431;-57
2023/01/31 14:59:46;;;;;;;7.20;2.80;;;;;;;;;;5019618;28;20445;-54